sensor_id;sensor_type;location;lat;lon;timestamp;P1;durP1;ratioP1;P2;durP2;ratioP2
68987;SDS011;56038;46.080;11.116;2023-08-01T00:00:15;1.88;;;1.77;;
68987;SDS011;56038;46.080;11.116;2023-08-01T00:05:17;3.58;;;1.83;;
68987;SDS011;56038;46.080;11.116;2023-08-01T00:10:20;2.20;;;2.00;;
68987;SDS011;56038;46.080;11.116;2023-08-01T00:15:22;4.25;;;2.55;;
68987;SDS011;56038;46.080;11.116;2023-08-01T00:20:24;3.08;;;2.30;;
68987;SDS011;56038;46.080;11.116;2023-08-01T00:25:27;2.58;;;2.38;;
68987;SDS011;56038;46.080;11.116;2023-08-01T00:30:29;2.47;;;2.22;;
68987;SDS011;56038;46.080;11.116;2023-08-01T00:35:30;2.97;;;2.20;;
68987;SDS011;56038;46.080;11.116;2023-08-01T00:40:34;2.47;;;2.25;;
68987;SDS011;56038;46.080;11.116;2023-08-01T00:45:35;3.85;;;2.55;;
68987;SDS011;56038;46.080;11.116;2023-08-01T00:50:37;2.88;;;2.35;;
68987;SDS011;56038;46.080;11.116;2023-08-01T00:55:41;4.70;;;2.40;;
68987;SDS011;56038;46.080;11.116;2023-08-01T01:00:43;2.90;;;2.70;;
68987;SDS011;56038;46.080;11.116;2023-08-01T01:05:47;3.05;;;2.25;;
68987;SDS011;56038;46.080;11.116;2023-08-01T01:10:55;2.58;;;2.38;;
68987;SDS011;56038;46.080;11.116;2023-08-01T01:15:57;2.75;;;2.53;;
68987;SDS011;56038;46.080;11.116;2023-08-01T01:21:00;3.05;;;2.38;;
68987;SDS011;56038;46.080;11.116;2023-08-01T01:26:02;2.53;;;2.05;;
68987;SDS011;56038;46.080;11.116;2023-08-01T01:31:07;2.13;;;2.03;;
68987;SDS011;56038;46.080;11.116;2023-08-01T01:36:11;2.13;;;2.00;;
68987;SDS011;56038;46.080;11.116;2023-08-01T01:41:12;3.45;;;2.50;;
68987;SDS011;56038;46.080;11.116;2023-08-01T01:46:14;2.90;;;2.60;;
68987;SDS011;56038;46.080;11.116;2023-08-01T01:51:17;2.47;;;2.28;;
68987;SDS011;56038;46.080;11.116;2023-08-01T01:56:20;2.25;;;1.88;;
68987;SDS011;56038;46.080;11.116;2023-08-01T02:01:22;1.92;;;1.80;;
68987;SDS011;56038;46.080;11.116;2023-08-01T02:06:25;3.22;;;2.63;;
68987;SDS011;56038;46.080;11.116;2023-08-01T02:11:27;3.78;;;2.70;;
68987;SDS011;56038;46.080;11.116;2023-08-01T02:16:29;4.55;;;2.78;;
68987;SDS011;56038;46.080;11.116;2023-08-01T02:21:32;3.22;;;2.42;;
68987;SDS011;56038;46.080;11.116;2023-08-01T02:26:33;4.47;;;2.47;;
68987;SDS011;56038;46.080;11.116;2023-08-01T02:31:35;3.55;;;2.25;;
68987;SDS011;56038;46.080;11.116;2023-08-01T02:36:38;3.53;;;2.60;;
68987;SDS011;56038;46.080;11.116;2023-08-01T02:41:41;3.00;;;2.40;;
68987;SDS011;56038;46.080;11.116;2023-08-01T02:46:42;2.92;;;2.30;;
68987;SDS011;56038;46.080;11.116;2023-08-01T02:51:45;3.97;;;2.90;;
68987;SDS011;56038;46.080;11.116;2023-08-01T02:56:47;2.67;;;2.47;;
68987;SDS011;56038;46.080;11.116;2023-08-01T03:01:49;3.42;;;2.80;;
68987;SDS011;56038;46.080;11.116;2023-08-01T03:06:52;3.65;;;3.03;;
68987;SDS011;56038;46.080;11.116;2023-08-01T03:11:54;3.47;;;3.17;;
68987;SDS011;56038;46.080;11.116;2023-08-01T03:16:56;3.15;;;2.95;;
68987;SDS011;56038;46.080;11.116;2023-08-01T03:21:59;3.55;;;3.25;;
68987;SDS011;56038;46.080;11.116;2023-08-01T03:27:01;3.35;;;3.05;;
68987;SDS011;56038;46.080;11.116;2023-08-01T03:32:03;3.38;;;2.47;;
68987;SDS011;56038;46.080;11.116;2023-08-01T03:37:07;4.32;;;3.08;;
68987;SDS011;56038;46.080;11.116;2023-08-01T03:42:09;4.65;;;3.10;;
68987;SDS011;56038;46.080;11.116;2023-08-01T03:47:10;3.60;;;3.08;;
68987;SDS011;56038;46.080;11.116;2023-08-01T03:52:14;3.22;;;2.90;;
68987;SDS011;56038;46.080;11.116;2023-08-01T03:57:15;2.83;;;2.50;;
68987;SDS011;56038;46.080;11.116;2023-08-01T04:02:17;2.08;;;1.98;;
68987;SDS011;56038;46.080;11.116;2023-08-01T04:07:20;3.97;;;2.90;;
68987;SDS011;56038;46.080;11.116;2023-08-01T04:12:22;2.22;;;2.13;;
68987;SDS011;56038;46.080;11.116;2023-08-01T04:17:24;2.65;;;2.45;;
68987;SDS011;56038;46.080;11.116;2023-08-01T04:22:27;2.47;;;2.13;;
68987;SDS011;56038;46.080;11.116;2023-08-01T04:27:29;3.67;;;3.33;;
68987;SDS011;56038;46.080;11.116;2023-08-01T04:32:31;3.50;;;3.20;;
68987;SDS011;56038;46.080;11.116;2023-08-01T04:37:34;4.13;;;3.38;;
68987;SDS011;56038;46.080;11.116;2023-08-01T04:42:36;3.63;;;3.25;;
68987;SDS011;56038;46.080;11.116;2023-08-01T04:47:37;3.53;;;3.22;;
68987;SDS011;56038;46.080;11.116;2023-08-01T04:52:40;4.47;;;3.50;;
68987;SDS011;56038;46.080;11.116;2023-08-01T04:57:42;3.63;;;3.33;;
68987;SDS011;56038;46.080;11.116;2023-08-01T05:02:44;3.95;;;3.55;;
68987;SDS011;56038;46.080;11.116;2023-08-01T05:07:47;3.30;;;3.00;;
68987;SDS011;56038;46.080;11.116;2023-08-01T05:12:49;3.92;;;3.53;;
68987;SDS011;56038;46.080;11.116;2023-08-01T05:17:52;4.55;;;3.30;;
68987;SDS011;56038;46.080;11.116;2023-08-01T05:22:55;3.45;;;3.15;;
68987;SDS011;56038;46.080;11.116;2023-08-01T05:27:57;2.88;;;2.67;;
68987;SDS011;56038;46.080;11.116;2023-08-01T05:32:58;3.10;;;2.80;;
68987;SDS011;56038;46.080;11.116;2023-08-01T05:38:02;3.08;;;2.65;;
68987;SDS011;56038;46.080;11.116;2023-08-01T05:43:03;3.40;;;3.13;;
68987;SDS011;56038;46.080;11.116;2023-08-01T05:48:08;3.25;;;3.05;;
68987;SDS011;56038;46.080;11.116;2023-08-01T05:53:12;3.75;;;3.35;;
68987;SDS011;56038;46.080;11.116;2023-08-01T05:58:14;4.03;;;3.70;;
68987;SDS011;56038;46.080;11.116;2023-08-01T06:03:15;3.72;;;3.42;;
68987;SDS011;56038;46.080;11.116;2023-08-01T06:08:19;6.35;;;3.97;;
68987;SDS011;56038;46.080;11.116;2023-08-01T06:13:21;4.40;;;4.00;;
68987;SDS011;56038;46.080;11.116;2023-08-01T06:18:23;3.38;;;3.08;;
68987;SDS011;56038;46.080;11.116;2023-08-01T06:23:26;3.78;;;3.20;;
68987;SDS011;56038;46.080;11.116;2023-08-01T06:28:28;3.85;;;3.45;;
68987;SDS011;56038;46.080;11.116;2023-08-01T06:33:31;3.63;;;2.90;;
68987;SDS011;56038;46.080;11.116;2023-08-01T06:38:34;3.78;;;3.30;;
68987;SDS011;56038;46.080;11.116;2023-08-01T06:43:36;3.88;;;3.58;;
68987;SDS011;56038;46.080;11.116;2023-08-01T06:48:38;4.20;;;3.80;;
68987;SDS011;56038;46.080;11.116;2023-08-01T06:53:41;4.05;;;3.20;;
68987;SDS011;56038;46.080;11.116;2023-08-01T06:58:44;4.40;;;4.00;;
68987;SDS011;56038;46.080;11.116;2023-08-01T07:03:45;3.85;;;3.55;;
68987;SDS011;56038;46.080;11.116;2023-08-01T07:08:48;4.35;;;3.50;;
68987;SDS011;56038;46.080;11.116;2023-08-01T07:13:50;3.60;;;3.30;;
68987;SDS011;56038;46.080;11.116;2023-08-01T07:18:52;5.22;;;4.05;;
68987;SDS011;56038;46.080;11.116;2023-08-01T07:23:55;4.10;;;3.70;;
68987;SDS011;56038;46.080;11.116;2023-08-01T07:28:58;4.00;;;3.60;;
68987;SDS011;56038;46.080;11.116;2023-08-01T07:34:00;5.00;;;3.33;;
68987;SDS011;56038;46.080;11.116;2023-08-01T07:39:03;8.90;;;3.10;;
68987;SDS011;56038;46.080;11.116;2023-08-01T07:44:05;3.75;;;3.45;;
68987;SDS011;56038;46.080;11.116;2023-08-01T07:49:07;4.28;;;3.88;;
68987;SDS011;56038;46.080;11.116;2023-08-01T07:54:11;4.97;;;3.78;;
68987;SDS011;56038;46.080;11.116;2023-08-01T07:59:13;4.55;;;3.90;;
68987;SDS011;56038;46.080;11.116;2023-08-01T08:04:14;4.05;;;3.75;;
68987;SDS011;56038;46.080;11.116;2023-08-01T08:09:18;4.63;;;3.58;;
68987;SDS011;56038;46.080;11.116;2023-08-01T08:14:19;4.80;;;3.78;;
68987;SDS011;56038;46.080;11.116;2023-08-01T08:19:23;3.85;;;3.50;;
68987;SDS011;56038;46.080;11.116;2023-08-01T08:24:26;3.05;;;2.85;;
68987;SDS011;56038;46.080;11.116;2023-08-01T08:29:28;3.40;;;2.97;;
68987;SDS011;56038;46.080;11.116;2023-08-01T08:34:31;3.97;;;3.33;;
68987;SDS011;56038;46.080;11.116;2023-08-01T08:39:34;3.50;;;3.20;;
68987;SDS011;56038;46.080;11.116;2023-08-01T08:44:39;3.15;;;2.78;;
68987;SDS011;56038;46.080;11.116;2023-08-01T08:49:44;3.55;;;2.70;;
68987;SDS011;56038;46.080;11.116;2023-08-01T08:54:48;3.30;;;3.00;;
68987;SDS011;56038;46.080;11.116;2023-08-01T08:59:50;3.13;;;2.88;;
68987;SDS011;56038;46.080;11.116;2023-08-01T09:04:54;3.40;;;3.10;;
68987;SDS011;56038;46.080;11.116;2023-08-01T09:09:57;2.92;;;2.72;;
68987;SDS011;56038;46.080;11.116;2023-08-01T09:14:59;3.10;;;2.90;;
68987;SDS011;56038;46.080;11.116;2023-08-01T09:20:04;3.13;;;2.60;;
68987;SDS011;56038;46.080;11.116;2023-08-01T09:25:08;2.30;;;2.10;;
68987;SDS011;56038;46.080;11.116;2023-08-01T09:30:10;2.63;;;2.42;;
68987;SDS011;56038;46.080;11.116;2023-08-01T09:35:17;2.92;;;2.72;;
68987;SDS011;56038;46.080;11.116;2023-08-01T09:40:21;2.70;;;2.50;;
68987;SDS011;56038;46.080;11.116;2023-08-01T09:45:23;3.08;;;2.78;;
68987;SDS011;56038;46.080;11.116;2023-08-01T09:50:25;3.55;;;2.60;;
68987;SDS011;56038;46.080;11.116;2023-08-01T09:55:30;3.22;;;2.60;;
68987;SDS011;56038;46.080;11.116;2023-08-01T10:00:33;3.03;;;2.83;;
68987;SDS011;56038;46.080;11.116;2023-08-01T10:05:37;2.78;;;2.58;;
68987;SDS011;56038;46.080;11.116;2023-08-01T10:10:49;3.20;;;2.90;;
68987;SDS011;56038;46.080;11.116;2023-08-01T10:15:53;2.63;;;2.42;;
68987;SDS011;56038;46.080;11.116;2023-08-01T10:20:55;1.88;;;1.77;;
68987;SDS011;56038;46.080;11.116;2023-08-01T10:25:59;4.68;;;2.17;;
68987;SDS011;56038;46.080;11.116;2023-08-01T10:31:09;2.15;;;2.03;;
68987;SDS011;56038;46.080;11.116;2023-08-01T10:36:12;3.25;;;1.98;;
68987;SDS011;56038;46.080;11.116;2023-08-01T10:41:26;2.43;;;2.23;;
68987;SDS011;56038;46.080;11.116;2023-08-01T10:46:29;2.15;;;1.95;;
68987;SDS011;56038;46.080;11.116;2023-08-01T10:51:47;2.75;;;2.13;;
68987;SDS011;56038;46.080;11.116;2023-08-01T10:56:51;2.75;;;2.45;;
68987;SDS011;56038;46.080;11.116;2023-08-01T11:01:58;2.42;;;2.17;;
68987;SDS011;56038;46.080;11.116;2023-08-01T11:07:01;3.38;;;2.88;;
68987;SDS011;56038;46.080;11.116;2023-08-01T11:17:08;3.00;;;1.95;;
68987;SDS011;56038;46.080;11.116;2023-08-01T11:22:10;3.95;;;2.00;;
68987;SDS011;56038;46.080;11.116;2023-08-01T11:27:13;2.28;;;1.83;;
68987;SDS011;56038;46.080;11.116;2023-08-01T11:32:15;2.27;;;2.00;;
68987;SDS011;56038;46.080;11.116;2023-08-01T11:37:18;2.65;;;2.20;;
68987;SDS011;56038;46.080;11.116;2023-08-01T11:42:22;2.22;;;2.03;;
68987;SDS011;56038;46.080;11.116;2023-08-01T11:47:24;2.50;;;2.30;;
68987;SDS011;56038;46.080;11.116;2023-08-01T11:52:27;2.20;;;2.00;;
68987;SDS011;56038;46.080;11.116;2023-08-01T11:57:31;2.15;;;1.60;;
68987;SDS011;56038;46.080;11.116;2023-08-01T12:02:33;2.40;;;2.20;;
68987;SDS011;56038;46.080;11.116;2023-08-01T12:07:35;4.43;;;3.80;;
68987;SDS011;56038;46.080;11.116;2023-08-01T12:12:43;2.40;;;2.10;;
68987;SDS011;56038;46.080;11.116;2023-08-01T12:17:46;2.30;;;2.10;;
68987;SDS011;56038;46.080;11.116;2023-08-01T12:22:47;3.03;;;2.22;;
68987;SDS011;56038;46.080;11.116;2023-08-01T12:27:50;2.97;;;2.63;;
68987;SDS011;56038;46.080;11.116;2023-08-01T12:32:52;2.28;;;2.08;;
68987;SDS011;56038;46.080;11.116;2023-08-01T12:37:54;2.88;;;2.20;;
68987;SDS011;56038;46.080;11.116;2023-08-01T12:42:58;3.55;;;1.92;;
68987;SDS011;56038;46.080;11.116;2023-08-01T12:48:00;4.38;;;2.28;;
68987;SDS011;56038;46.080;11.116;2023-08-01T12:53:01;2.30;;;2.10;;
68987;SDS011;56038;46.080;11.116;2023-08-01T12:58:04;3.15;;;2.35;;
68987;SDS011;56038;46.080;11.116;2023-08-01T13:03:06;3.73;;;2.07;;
68987;SDS011;56038;46.080;11.116;2023-08-01T13:08:09;1.90;;;1.80;;
68987;SDS011;56038;46.080;11.116;2023-08-01T13:13:12;3.90;;;2.10;;
68987;SDS011;56038;46.080;11.116;2023-08-01T13:18:14;2.57;;;1.90;;
68987;SDS011;56038;46.080;11.116;2023-08-01T13:23:17;2.37;;;1.80;;
68987;SDS011;56038;46.080;11.116;2023-08-01T13:28:20;2.60;;;2.08;;
68987;SDS011;56038;46.080;11.116;2023-08-01T13:33:22;3.75;;;2.55;;
68987;SDS011;56038;46.080;11.116;2023-08-01T13:38:24;2.65;;;2.10;;
68987;SDS011;56038;46.080;11.116;2023-08-01T13:43:27;4.45;;;2.60;;
68987;SDS011;56038;46.080;11.116;2023-08-01T13:48:28;2.40;;;2.20;;
68987;SDS011;56038;46.080;11.116;2023-08-01T13:53:30;2.95;;;2.53;;
68987;SDS011;56038;46.080;11.116;2023-08-01T13:58:33;3.28;;;1.90;;
68987;SDS011;56038;46.080;11.116;2023-08-01T14:03:36;3.43;;;2.10;;
68987;SDS011;56038;46.080;11.116;2023-08-01T14:08:38;3.60;;;2.67;;
68987;SDS011;56038;46.080;11.116;2023-08-01T14:13:42;2.55;;;2.22;;
68987;SDS011;56038;46.080;11.116;2023-08-01T14:18:44;3.90;;;2.37;;
68987;SDS011;56038;46.080;11.116;2023-08-01T14:23:45;2.30;;;2.10;;
68987;SDS011;56038;46.080;11.116;2023-08-01T14:28:49;2.88;;;2.22;;
68987;SDS011;56038;46.080;11.116;2023-08-01T14:33:51;2.63;;;2.10;;
68987;SDS011;56038;46.080;11.116;2023-08-01T14:38:52;3.50;;;2.70;;
68987;SDS011;56038;46.080;11.116;2023-08-01T14:43:58;3.90;;;2.35;;
68987;SDS011;56038;46.080;11.116;2023-08-01T14:48:59;2.65;;;2.10;;
68987;SDS011;56038;46.080;11.116;2023-08-01T14:54:01;3.33;;;2.55;;
68987;SDS011;56038;46.080;11.116;2023-08-01T14:59:04;3.38;;;2.67;;
68987;SDS011;56038;46.080;11.116;2023-08-01T15:04:06;2.53;;;2.33;;
68987;SDS011;56038;46.080;11.116;2023-08-01T15:09:07;2.40;;;2.20;;
68987;SDS011;56038;46.080;11.116;2023-08-01T15:14:11;5.38;;;2.10;;
68987;SDS011;56038;46.080;11.116;2023-08-01T15:19:13;3.70;;;2.50;;
68987;SDS011;56038;46.080;11.116;2023-08-01T15:24:15;4.45;;;2.97;;
68987;SDS011;56038;46.080;11.116;2023-08-01T15:29:18;2.78;;;2.42;;
68987;SDS011;56038;46.080;11.116;2023-08-01T15:34:19;3.90;;;2.30;;
68987;SDS011;56038;46.080;11.116;2023-08-01T15:39:21;3.33;;;2.40;;
68987;SDS011;56038;46.080;11.116;2023-08-01T15:44:24;3.25;;;2.67;;
68987;SDS011;56038;46.080;11.116;2023-08-01T15:49:26;3.40;;;2.00;;
68987;SDS011;56038;46.080;11.116;2023-08-01T15:54:28;2.78;;;1.95;;
68987;SDS011;56038;46.080;11.116;2023-08-01T15:59:31;2.72;;;2.40;;
68987;SDS011;56038;46.080;11.116;2023-08-01T16:04:33;2.60;;;2.40;;
68987;SDS011;56038;46.080;11.116;2023-08-01T16:09:35;3.00;;;2.47;;
68987;SDS011;56038;46.080;11.116;2023-08-01T16:14:38;4.00;;;2.50;;
68987;SDS011;56038;46.080;11.116;2023-08-01T16:19:40;6.20;;;2.53;;
68987;SDS011;56038;46.080;11.116;2023-08-01T16:24:42;3.33;;;2.40;;
68987;SDS011;56038;46.080;11.116;2023-08-01T16:29:45;5.55;;;3.08;;
68987;SDS011;56038;46.080;11.116;2023-08-01T16:34:48;3.15;;;2.60;;
68987;SDS011;56038;46.080;11.116;2023-08-01T16:39:50;2.72;;;2.35;;
68987;SDS011;56038;46.080;11.116;2023-08-01T16:44:53;3.10;;;2.70;;
68987;SDS011;56038;46.080;11.116;2023-08-01T16:49:55;4.47;;;3.53;;
68987;SDS011;56038;46.080;11.116;2023-08-01T16:54:58;5.72;;;2.95;;
68987;SDS011;56038;46.080;11.116;2023-08-01T17:00:01;2.95;;;2.65;;
68987;SDS011;56038;46.080;11.116;2023-08-01T17:05:04;3.63;;;2.92;;
68987;SDS011;56038;46.080;11.116;2023-08-01T17:10:06;3.20;;;2.80;;
68987;SDS011;56038;46.080;11.116;2023-08-01T17:15:10;3.58;;;2.88;;
68987;SDS011;56038;46.080;11.116;2023-08-01T17:20:12;4.93;;;2.85;;
68987;SDS011;56038;46.080;11.116;2023-08-01T17:25:14;4.65;;;2.80;;
68987;SDS011;56038;46.080;11.116;2023-08-01T17:30:17;4.80;;;2.80;;
68987;SDS011;56038;46.080;11.116;2023-08-01T17:35:19;6.57;;;5.73;;
68987;SDS011;56038;46.080;11.116;2023-08-01T17:40:21;4.35;;;3.10;;
68987;SDS011;56038;46.080;11.116;2023-08-01T17:45:24;3.33;;;2.83;;
68987;SDS011;56038;46.080;11.116;2023-08-01T17:50:26;3.78;;;2.75;;
68987;SDS011;56038;46.080;11.116;2023-08-01T17:55:27;3.00;;;2.70;;
68987;SDS011;56038;46.080;11.116;2023-08-01T18:00:31;2.60;;;2.40;;
68987;SDS011;56038;46.080;11.116;2023-08-01T18:05:33;2.67;;;2.47;;
68987;SDS011;56038;46.080;11.116;2023-08-01T18:10:34;4.70;;;2.67;;
68987;SDS011;56038;46.080;11.116;2023-08-01T18:15:38;3.45;;;2.30;;
68987;SDS011;56038;46.080;11.116;2023-08-01T18:20:42;2.80;;;2.40;;
68987;SDS011;56038;46.080;11.116;2023-08-01T18:25:43;2.92;;;2.30;;
68987;SDS011;56038;46.080;11.116;2023-08-01T18:30:47;2.83;;;2.55;;
68987;SDS011;56038;46.080;11.116;2023-08-01T18:35:48;2.77;;;2.23;;
68987;SDS011;56038;46.080;11.116;2023-08-01T18:40:50;2.47;;;2.28;;
68987;SDS011;56038;46.080;11.116;2023-08-01T18:45:54;4.78;;;2.22;;
68987;SDS011;56038;46.080;11.116;2023-08-01T18:50:56;2.50;;;2.30;;
68987;SDS011;56038;46.080;11.116;2023-08-01T18:56:03;2.67;;;1.90;;
68987;SDS011;56038;46.080;11.116;2023-08-01T19:01:11;2.63;;;2.10;;
68987;SDS011;56038;46.080;11.116;2023-08-01T19:06:14;3.67;;;2.50;;
68987;SDS011;56038;46.080;11.116;2023-08-01T19:11:17;2.60;;;2.38;;
68987;SDS011;56038;46.080;11.116;2023-08-01T19:16:20;2.33;;;1.95;;
68987;SDS011;56038;46.080;11.116;2023-08-01T19:21:22;4.18;;;2.08;;
68987;SDS011;56038;46.080;11.116;2023-08-01T19:26:24;2.83;;;2.00;;
68987;SDS011;56038;46.080;11.116;2023-08-01T19:31:27;3.10;;;1.85;;
68987;SDS011;56038;46.080;11.116;2023-08-01T19:36:29;2.38;;;2.20;;
68987;SDS011;56038;46.080;11.116;2023-08-01T19:41:32;2.67;;;1.90;;
68987;SDS011;56038;46.080;11.116;2023-08-01T19:46:36;2.50;;;2.17;;
68987;SDS011;56038;46.080;11.116;2023-08-01T19:51:38;2.38;;;2.13;;
68987;SDS011;56038;46.080;11.116;2023-08-01T19:56:40;1.52;;;1.42;;
68987;SDS011;56038;46.080;11.116;2023-08-01T20:01:43;2.85;;;2.13;;
68987;SDS011;56038;46.080;11.116;2023-08-01T20:06:45;1.83;;;1.70;;
68987;SDS011;56038;46.080;11.116;2023-08-01T20:11:47;2.67;;;2.47;;
68987;SDS011;56038;46.080;11.116;2023-08-01T20:16:50;2.35;;;2.13;;
68987;SDS011;56038;46.080;11.116;2023-08-01T20:21:53;4.38;;;1.95;;
68987;SDS011;56038;46.080;11.116;2023-08-01T20:26:54;2.08;;;1.85;;
68987;SDS011;56038;46.080;11.116;2023-08-01T20:31:58;2.40;;;2.20;;
68987;SDS011;56038;46.080;11.116;2023-08-01T20:37:00;2.25;;;2.03;;
68987;SDS011;56038;46.080;11.116;2023-08-01T20:42:03;1.90;;;1.80;;
68987;SDS011;56038;46.080;11.116;2023-08-01T20:47:06;3.58;;;2.17;;
68987;SDS011;56038;46.080;11.116;2023-08-01T20:52:08;2.85;;;2.10;;
68987;SDS011;56038;46.080;11.116;2023-08-01T20:57:10;2.85;;;1.95;;
68987;SDS011;56038;46.080;11.116;2023-08-01T21:02:13;2.50;;;1.73;;
68987;SDS011;56038;46.080;11.116;2023-08-01T21:07:15;2.55;;;1.70;;
68987;SDS011;56038;46.080;11.116;2023-08-01T21:12:17;2.13;;;1.55;;
68987;SDS011;56038;46.080;11.116;2023-08-01T21:17:20;2.85;;;1.83;;
68987;SDS011;56038;46.080;11.116;2023-08-01T21:22:22;2.15;;;1.95;;
68987;SDS011;56038;46.080;11.116;2023-08-01T21:27:24;2.22;;;2.03;;
68987;SDS011;56038;46.080;11.116;2023-08-01T21:32:27;2.38;;;2.13;;
68987;SDS011;56038;46.080;11.116;2023-08-01T21:37:29;2.63;;;1.95;;
68987;SDS011;56038;46.080;11.116;2023-08-01T21:42:31;2.80;;;1.80;;
68987;SDS011;56038;46.080;11.116;2023-08-01T21:47:34;2.13;;;1.80;;
68987;SDS011;56038;46.080;11.116;2023-08-01T21:52:36;2.50;;;2.10;;
68987;SDS011;56038;46.080;11.116;2023-08-01T21:57:38;3.03;;;2.08;;
68987;SDS011;56038;46.080;11.116;2023-08-01T22:02:41;2.22;;;1.98;;
68987;SDS011;56038;46.080;11.116;2023-08-01T22:07:44;1.85;;;1.73;;
68987;SDS011;56038;46.080;11.116;2023-08-01T22:12:46;3.17;;;2.28;;
68987;SDS011;56038;46.080;11.116;2023-08-01T22:17:49;2.55;;;1.80;;
68987;SDS011;56038;46.080;11.116;2023-08-01T22:22:51;2.03;;;1.85;;
68987;SDS011;56038;46.080;11.116;2023-08-01T22:27:53;2.65;;;1.40;;
68987;SDS011;56038;46.080;11.116;2023-08-01T22:32:56;2.75;;;1.63;;
68987;SDS011;56038;46.080;11.116;2023-08-01T22:37:58;2.93;;;1.90;;
68987;SDS011;56038;46.080;11.116;2023-08-01T22:43:00;1.80;;;1.70;;
68987;SDS011;56038;46.080;11.116;2023-08-01T22:48:04;1.98;;;1.77;;
68987;SDS011;56038;46.080;11.116;2023-08-01T22:53:06;3.75;;;1.75;;
68987;SDS011;56038;46.080;11.116;2023-08-01T22:58:08;2.53;;;2.05;;
68987;SDS011;56038;46.080;11.116;2023-08-01T23:03:11;2.17;;;1.70;;
68987;SDS011;56038;46.080;11.116;2023-08-01T23:08:13;2.05;;;1.60;;
68987;SDS011;56038;46.080;11.116;2023-08-01T23:13:15;3.72;;;2.00;;
68987;SDS011;56038;46.080;11.116;2023-08-01T23:18:19;2.00;;;1.73;;
68987;SDS011;56038;46.080;11.116;2023-08-01T23:23:20;3.03;;;2.17;;
68987;SDS011;56038;46.080;11.116;2023-08-01T23:28:22;1.67;;;1.58;;
68987;SDS011;56038;46.080;11.116;2023-08-01T23:33:26;1.92;;;1.80;;
68987;SDS011;56038;46.080;11.116;2023-08-01T23:38:27;4.20;;;2.05;;
68987;SDS011;56038;46.080;11.116;2023-08-01T23:43:29;3.05;;;1.95;;
68987;SDS011;56038;46.080;11.116;2023-08-01T23:48:33;2.05;;;1.77;;
68987;SDS011;56038;46.080;11.116;2023-08-01T23:53:34;3.25;;;1.73;;
68987;SDS011;56038;46.080;11.116;2023-08-01T23:58:36;1.98;;;1.60;;
